createdAt,value
2022-12-15T00:00:02.320Z,-9.18
2022-12-15T00:05:25.585Z,-9.36
2022-12-15T00:10:45.910Z,-9.51
2022-12-15T00:16:06.827Z,-9.57
2022-12-15T00:21:27.292Z,-9.69
2022-12-15T00:26:47.595Z,-9.79
2022-12-15T00:32:07.992Z,-9.84
2022-12-15T00:37:28.351Z,-9.97
2022-12-15T00:42:30.407Z,-10.20
2022-12-15T00:47:33.483Z,-10.21
2022-12-15T00:52:54.294Z,-10.25
2022-12-15T00:58:14.539Z,-10.02
2022-12-15T01:03:41.333Z,-10.05
2022-12-15T01:09:02.353Z,-10.11
2022-12-15T01:14:22.468Z,-10.13
2022-12-15T01:19:42.864Z,-10.13
2022-12-15T01:24:44.760Z,-10.17
2022-12-15T01:29:46.614Z,-10.07
2022-12-15T01:34:48.383Z,-10.06
2022-12-15T01:40:08.525Z,-10.12
2022-12-15T01:45:25.654Z,-10.42
2022-12-15T01:50:29.449Z,-10.42
2022-12-15T01:55:33.102Z,-10.38
2022-12-15T02:00:35.141Z,-10.41
2022-12-15T02:05:37.672Z,-10.33
2022-12-15T02:11:14.349Z,-10.28
2022-12-15T02:16:25.826Z,-10.02
2022-12-15T02:21:42.216Z,-9.90
2022-12-15T02:27:08.682Z,-9.60
2022-12-15T02:32:13.538Z,-9.42
2022-12-15T02:37:24.274Z,-9.48
2022-12-15T02:42:28.573Z,-9.54
2022-12-15T02:47:58.254Z,-9.56
2022-12-15T02:53:16.273Z,-9.12
2022-12-15T02:58:36.514Z,-8.87
2022-12-15T03:03:40.287Z,-8.55
2022-12-15T03:08:42.160Z,-8.10
2022-12-15T03:13:44.018Z,-7.88
2022-12-15T03:18:46.377Z,-7.86
2022-12-15T03:23:48.160Z,-7.80
2022-12-15T03:28:49.899Z,-7.70
2022-12-15T03:33:51.689Z,-7.72
2022-12-15T03:38:54.641Z,-7.56
2022-12-15T03:43:56.380Z,-7.54
2022-12-15T03:48:58.649Z,-7.45
2022-12-15T03:54:00.408Z,-7.41
2022-12-15T03:59:03.289Z,-7.43
2022-12-15T04:04:05.649Z,-7.34
2022-12-15T04:09:07.490Z,-7.28
2022-12-15T04:14:09.734Z,-7.29
2022-12-15T04:19:29.947Z,-7.35
2022-12-15T04:24:50.227Z,-7.50
2022-12-15T04:30:10.512Z,-7.83
2022-12-15T04:35:30.774Z,-8.08
2022-12-15T04:40:51.024Z,-8.24
2022-12-15T04:46:11.910Z,-8.27
2022-12-15T04:51:32.202Z,-8.35
2022-12-15T04:56:52.472Z,-7.96
2022-12-15T05:02:12.846Z,-8.04
2022-12-15T05:07:33.894Z,-8.35
2022-12-15T05:12:54.373Z,-8.56
2022-12-15T05:18:14.524Z,-8.69
2022-12-15T05:23:34.818Z,-8.65
2022-12-15T05:28:55.179Z,-8.66
2022-12-15T05:34:04.459Z,-8.88
2022-12-15T05:39:07.205Z,-9.06
2022-12-15T05:44:09.859Z,-9.20
2022-12-15T05:49:16.866Z,-9.15
2022-12-15T05:54:19.961Z,-9.08
2022-12-15T05:59:21.813Z,-9.14
2022-12-15T06:04:23.758Z,-9.21
2022-12-15T06:09:25.581Z,-9.17
2022-12-15T06:14:27.384Z,-9.18
2022-12-15T06:19:29.177Z,-9.21
2022-12-15T06:24:31.134Z,-9.26
2022-12-15T06:29:32.942Z,-9.42
2022-12-15T06:34:34.711Z,-9.49
2022-12-15T06:39:36.540Z,-9.44
2022-12-15T06:44:38.342Z,-9.41
2022-12-15T06:49:40.173Z,-9.44
2022-12-15T06:54:42.455Z,-9.48
2022-12-15T06:59:44.321Z,-9.54
2022-12-15T07:04:46.117Z,-9.65
2022-12-15T07:09:47.903Z,-9.68
2022-12-15T07:14:53.409Z,-9.61
2022-12-15T07:19:55.599Z,-9.50
2022-12-15T07:24:57.422Z,-9.41
2022-12-15T07:29:59.231Z,-9.43
2022-12-15T07:35:01.000Z,-9.46
2022-12-15T07:40:03.464Z,-9.60
2022-12-15T07:45:07.006Z,-9.54
2022-12-15T07:50:09.241Z,-9.67
2022-12-15T07:55:11.110Z,-9.58
2022-12-15T08:00:14.902Z,-9.67
2022-12-15T08:05:16.714Z,-9.58
2022-12-15T08:10:18.545Z,-9.37
2022-12-15T08:15:20.380Z,-8.96
2022-12-15T08:20:22.288Z,-8.65
2022-12-15T08:25:24.726Z,-8.30
2022-12-15T08:30:26.668Z,-7.89
2022-12-15T08:35:55.179Z,-7.48
2022-12-15T08:40:50.273Z,-7.09
2022-12-15T08:45:52.112Z,-6.49
2022-12-15T08:50:55.710Z,-6.00
2022-12-15T08:56:09.378Z,-5.48
2022-12-15T09:01:20.556Z,-5.12
2022-12-15T09:06:27.780Z,-4.70
2022-12-15T09:11:30.604Z,-4.05
2022-12-15T09:16:32.567Z,-3.40
2022-12-15T09:21:34.643Z,-2.96
2022-12-15T09:26:36.473Z,-2.73
2022-12-15T09:31:38.369Z,-2.70
2022-12-15T09:36:40.740Z,-2.63
2022-12-15T09:41:51.702Z,-2.70
2022-12-15T09:47:40.457Z,-2.96
2022-12-15T09:52:49.288Z,-3.03
2022-12-15T09:57:51.063Z,-3.12
2022-12-15T10:02:52.992Z,-3.04
2022-12-15T10:07:55.096Z,-2.78
2022-12-15T10:13:02.962Z,-2.58
2022-12-15T10:18:22.934Z,-2.71
2022-12-15T10:23:26.106Z,-2.73
2022-12-15T10:28:53.940Z,-2.65
2022-12-15T10:34:10.702Z,-2.58
2022-12-15T10:39:14.468Z,-2.29
2022-12-15T10:44:31.905Z,-1.67
2022-12-15T10:49:34.108Z,-0.56
2022-12-15T10:54:43.964Z,0.58
2022-12-15T10:59:45.901Z,1.54
2022-12-15T11:05:05.336Z,3.55
2022-12-15T11:10:18.485Z,4.22
2022-12-15T11:15:23.268Z,3.31
2022-12-15T11:20:34.251Z,1.68
2022-12-15T11:25:45.445Z,2.83
2022-12-15T11:31:03.159Z,2.89
2022-12-15T11:36:41.122Z,3.02
2022-12-15T11:42:01.710Z,2.86
2022-12-15T11:47:43.168Z,3.23
2022-12-15T11:52:53.942Z,3.68
2022-12-15T11:58:11.028Z,3.96
2022-12-15T12:03:37.822Z,5.27
2022-12-15T12:09:17.141Z,5.71
2022-12-15T12:14:18.971Z,6.50
2022-12-15T12:19:26.703Z,7.76
2022-12-15T12:24:50.750Z,9.07
2022-12-15T12:30:02.768Z,9.68
2022-12-15T12:35:31.052Z,10.24
2022-12-15T12:40:54.596Z,7.51
2022-12-15T12:46:02.544Z,3.92
2022-12-15T12:51:24.466Z,2.00
2022-12-15T12:56:40.562Z,0.59
2022-12-15T13:01:42.515Z,-0.05
2022-12-15T13:06:44.418Z,-0.49
2022-12-15T13:11:49.343Z,-0.59
2022-12-15T13:17:25.395Z,-0.89
2022-12-15T13:22:40.329Z,-0.94
2022-12-15T13:27:42.671Z,-1.07
2022-12-15T13:32:53.907Z,-1.31
2022-12-15T13:38:03.047Z,-1.56
2022-12-15T13:43:04.878Z,-1.77
2022-12-15T13:48:24.314Z,-1.67
2022-12-15T13:53:29.097Z,-1.96
2022-12-15T13:58:39.455Z,-2.36
2022-12-15T14:03:57.319Z,-2.54
2022-12-15T14:09:00.143Z,-2.68
2022-12-15T14:14:02.706Z,-3.23
2022-12-15T14:19:13.537Z,-3.75
2022-12-15T14:24:38.443Z,-4.10
2022-12-15T14:29:41.524Z,-4.38
2022-12-15T14:34:44.257Z,-4.59
2022-12-15T14:39:53.395Z,-4.77
2022-12-15T14:44:57.959Z,-5.03
2022-12-15T14:50:02.487Z,-5.22
2022-12-15T14:55:31.936Z,-5.36
2022-12-15T15:00:35.737Z,-5.28
2022-12-15T15:05:40.623Z,-5.50
2022-12-15T15:10:42.895Z,-5.97
2022-12-15T15:16:04.150Z,-6.37
2022-12-15T15:21:07.454Z,-6.73
2022-12-15T15:26:10.670Z,-7.00
2022-12-15T15:31:24.662Z,-7.18
2022-12-15T15:36:34.996Z,-7.43
2022-12-15T15:41:36.768Z,-7.64
2022-12-15T15:46:48.714Z,-7.96
2022-12-15T15:51:50.728Z,-8.18
2022-12-15T15:56:52.555Z,-8.35
2022-12-15T16:01:59.400Z,-8.37
2022-12-15T16:07:01.261Z,-8.50
2022-12-15T16:12:03.091Z,-8.75
2022-12-15T16:17:09.586Z,-8.82
2022-12-15T16:22:21.337Z,-9.01
2022-12-15T16:27:23.311Z,-9.08
2022-12-15T16:32:25.280Z,-9.20
2022-12-15T16:37:28.353Z,-9.32
2022-12-15T16:42:30.165Z,-9.45
2022-12-15T16:47:32.248Z,-9.54
2022-12-15T16:52:34.360Z,-9.57
2022-12-15T16:57:36.178Z,-9.68
2022-12-15T17:02:38.704Z,-9.70
2022-12-15T17:07:41.079Z,-9.76
2022-12-15T17:12:43.272Z,-9.64
2022-12-15T17:17:45.932Z,-9.57
2022-12-15T17:22:50.721Z,-9.65
2022-12-15T17:27:56.235Z,-9.61
2022-12-15T17:32:58.265Z,-9.49
2022-12-15T17:38:00.574Z,-9.38
2022-12-15T17:43:02.396Z,-9.29
2022-12-15T17:48:04.429Z,-9.00
2022-12-15T17:53:06.913Z,-8.79
2022-12-15T17:58:28.912Z,-8.68
2022-12-15T18:03:31.453Z,-8.52
2022-12-15T18:08:34.731Z,-8.47
2022-12-15T18:13:37.036Z,-8.32
2022-12-15T18:18:39.126Z,-8.13
2022-12-15T18:23:41.322Z,-7.98
2022-12-15T18:28:43.987Z,-7.93
2022-12-15T18:33:46.100Z,-7.94
2022-12-15T18:38:48.364Z,-7.81
2022-12-15T18:43:50.586Z,-7.74
2022-12-15T18:48:54.507Z,-7.80
2022-12-15T18:53:56.297Z,-7.74
2022-12-15T18:58:58.217Z,-7.71
2022-12-15T19:04:00.000Z,-7.71
2022-12-15T19:09:05.300Z,-7.58
2022-12-15T19:14:33.440Z,-7.42
2022-12-15T19:20:13.550Z,-7.32
2022-12-15T19:25:27.801Z,-7.31
2022-12-15T19:30:38.478Z,-7.26
2022-12-15T19:35:44.816Z,-7.21
2022-12-15T19:40:47.663Z,-7.26
2022-12-15T19:45:49.992Z,-7.21
2022-12-15T19:50:54.802Z,-7.28
2022-12-15T19:56:00.145Z,-7.24
2022-12-15T20:01:06.025Z,-7.17
2022-12-15T20:06:22.413Z,-7.15
2022-12-15T20:11:30.065Z,-7.07
2022-12-15T20:16:32.096Z,-7.21
2022-12-15T20:21:37.255Z,-7.21
2022-12-15T20:26:40.594Z,-7.02
2022-12-15T20:31:42.485Z,-7.00
2022-12-15T20:36:44.684Z,-6.98
2022-12-15T20:41:46.606Z,-6.87
2022-12-15T20:46:49.017Z,-6.82
2022-12-15T20:51:51.818Z,-6.73
2022-12-15T20:56:53.656Z,-6.66
2022-12-15T21:01:55.567Z,-6.61
2022-12-15T21:06:57.559Z,-6.44
2022-12-15T21:12:03.164Z,-6.43
2022-12-15T21:17:22.128Z,-6.37
2022-12-15T21:22:26.617Z,-6.24
2022-12-15T21:27:28.434Z,-6.17
2022-12-15T21:32:30.284Z,-6.08
2022-12-15T21:37:32.165Z,-6.05
2022-12-15T21:42:36.229Z,-5.98
2022-12-15T21:47:56.337Z,-5.89
2022-12-15T21:52:58.999Z,-5.85
2022-12-15T21:58:00.790Z,-5.82
2022-12-15T22:03:02.700Z,-5.85
2022-12-15T22:08:19.515Z,-5.73
2022-12-15T22:13:22.968Z,-5.75
2022-12-15T22:18:24.782Z,-5.85
2022-12-15T22:23:26.479Z,-5.84
2022-12-15T22:28:28.580Z,-5.81
2022-12-15T22:33:31.634Z,-5.83
2022-12-15T22:38:33.673Z,-5.68
2022-12-15T22:43:37.006Z,-5.57
2022-12-15T22:48:41.783Z,-5.50
2022-12-15T22:53:43.852Z,-5.47
2022-12-15T22:58:47.292Z,-5.51
2022-12-15T23:03:51.312Z,-5.55
2022-12-15T23:08:55.983Z,-5.68
2022-12-15T23:13:57.757Z,-5.74
2022-12-15T23:19:00.335Z,-5.60
2022-12-15T23:24:01.953Z,-5.57
2022-12-15T23:29:03.610Z,-5.53
2022-12-15T23:34:05.278Z,-5.53
2022-12-15T23:39:06.897Z,-5.52
2022-12-15T23:44:08.530Z,-5.46
2022-12-15T23:49:10.127Z,-5.43
2022-12-15T23:54:11.722Z,-5.44
2022-12-15T23:59:13.567Z,-5.41
